sensor_id;sensor_type;location;lat;lon;timestamp;pressure;altitude;pressure_sealevel;temperature;humidity
80566;BME280;69915;54.862;10.730;2024-03-29T00:00:37;99172.50;;;7.57;100.00
80566;BME280;69915;54.862;10.730;2024-03-29T00:03:03;99173.78;;;7.60;100.00
80566;BME280;69915;54.862;10.730;2024-03-29T00:05:29;99175.50;;;7.56;100.00
80566;BME280;69915;54.862;10.730;2024-03-29T00:07:55;99173.78;;;7.60;100.00
80566;BME280;69915;54.862;10.730;2024-03-29T00:10:20;99171.06;;;7.60;100.00
80566;BME280;69915;54.862;10.730;2024-03-29T00:12:46;99172.69;;;7.61;100.00
80566;BME280;69915;54.862;10.730;2024-03-29T00:15:12;99163.72;;;7.60;100.00
80566;BME280;69915;54.862;10.730;2024-03-29T00:17:38;99156.66;;;7.59;100.00
80566;BME280;69915;54.862;10.730;2024-03-29T00:20:05;99162.91;;;7.60;100.00
80566;BME280;69915;54.862;10.730;2024-03-29T00:22:31;99158.91;;;7.57;100.00
80566;BME280;69915;54.862;10.730;2024-03-29T00:24:56;99158.56;;;7.59;100.00
80566;BME280;69915;54.862;10.730;2024-03-29T00:27:22;99157.13;;;7.61;100.00
80566;BME280;69915;54.862;10.730;2024-03-29T00:29:51;99164.84;;;7.68;100.00
80566;BME280;69915;54.862;10.730;2024-03-29T00:32:21;99161.94;;;7.64;100.00
80566;BME280;69915;54.862;10.730;2024-03-29T00:34:49;99160.41;;;7.72;100.00
80566;BME280;69915;54.862;10.730;2024-03-29T00:37:15;99159.59;;;7.72;100.00
80566;BME280;69915;54.862;10.730;2024-03-29T00:39:41;99163.75;;;7.69;100.00
80566;BME280;69915;54.862;10.730;2024-03-29T00:42:09;99158.44;;;7.64;100.00
80566;BME280;69915;54.862;10.730;2024-03-29T00:44:38;99151.41;;;7.63;100.00
80566;BME280;69915;54.862;10.730;2024-03-29T00:47:07;99153.34;;;7.71;100.00
80566;BME280;69915;54.862;10.730;2024-03-29T00:49:33;99153.34;;;7.71;100.00
80566;BME280;69915;54.862;10.730;2024-03-29T00:51:59;99159.41;;;7.68;100.00
80566;BME280;69915;54.862;10.730;2024-03-29T00:54:24;99166.09;;;7.62;100.00
80566;BME280;69915;54.862;10.730;2024-03-29T00:56:50;99166.47;;;7.69;100.00
80566;BME280;69915;54.862;10.730;2024-03-29T00:59:16;99169.69;;;7.71;100.00
80566;BME280;69915;54.862;10.730;2024-03-29T01:01:42;99158.53;;;7.81;100.00
80566;BME280;69915;54.862;10.730;2024-03-29T01:04:08;99166.84;;;7.76;100.00
80566;BME280;69915;54.862;10.730;2024-03-29T01:06:33;99158.97;;;7.75;100.00
80566;BME280;69915;54.862;10.730;2024-03-29T01:09:00;99165.22;;;7.75;100.00
80566;BME280;69915;54.862;10.730;2024-03-29T01:11:26;99159.41;;;7.68;100.00
80566;BME280;69915;54.862;10.730;2024-03-29T01:13:52;99159.69;;;7.58;100.00
80566;BME280;69915;54.862;10.730;2024-03-29T01:16:17;99161.91;;;7.56;100.00
80566;BME280;69915;54.862;10.730;2024-03-29T01:18:43;99161.38;;;7.45;100.00
80566;BME280;69915;54.862;10.730;2024-03-29T01:21:09;99166.75;;;7.37;100.00
80566;BME280;69915;54.862;10.730;2024-03-29T01:23:35;99166.69;;;7.28;100.00
80566;BME280;69915;54.862;10.730;2024-03-29T01:26:01;99174.34;;;7.26;100.00
80566;BME280;69915;54.862;10.730;2024-03-29T01:28:26;99169.56;;;7.09;100.00
80566;BME280;69915;54.862;10.730;2024-03-29T01:30:53;99162.56;;;7.08;100.00
80566;BME280;69915;54.862;10.730;2024-03-29T01:33:19;99162.66;;;7.03;100.00
80566;BME280;69915;54.862;10.730;2024-03-29T01:35:45;99169.84;;;6.99;100.00
80566;BME280;69915;54.862;10.730;2024-03-29T01:38:11;99170.75;;;6.95;100.00
80566;BME280;69915;54.862;10.730;2024-03-29T01:40:36;99172.78;;;6.89;100.00
80566;BME280;69915;54.862;10.730;2024-03-29T01:43:02;99173.50;;;6.81;100.00
80566;BME280;69915;54.862;10.730;2024-03-29T01:45:29;99179.75;;;6.82;100.00
80566;BME280;69915;54.862;10.730;2024-03-29T01:47:55;99175.09;;;6.82;100.00
80566;BME280;69915;54.862;10.730;2024-03-29T01:50:21;99175.31;;;6.86;100.00
80566;BME280;69915;54.862;10.730;2024-03-29T01:52:48;99172.09;;;6.84;100.00
80566;BME280;69915;54.862;10.730;2024-03-29T01:55:14;99164.06;;;6.79;100.00
80566;BME280;69915;54.862;10.730;2024-03-29T01:57:40;99167.69;;;6.74;100.00
80566;BME280;69915;54.862;10.730;2024-03-29T02:00:06;99165.97;;;6.78;100.00
80566;BME280;69915;54.862;10.730;2024-03-29T02:02:33;99164.16;;;6.74;100.00
80566;BME280;69915;54.862;10.730;2024-03-29T02:04:59;99166.69;;;6.70;100.00
80566;BME280;69915;54.862;10.730;2024-03-29T02:07:25;99176.56;;;6.66;100.00
80566;BME280;69915;54.862;10.730;2024-03-29T02:09:51;99175.75;;;6.66;100.00
80566;BME280;69915;54.862;10.730;2024-03-29T02:12:17;99173.34;;;6.64;100.00
80566;BME280;69915;54.862;10.730;2024-03-29T02:14:42;99179.38;;;6.61;100.00
80566;BME280;69915;54.862;10.730;2024-03-29T02:17:08;99183.38;;;6.64;100.00
80566;BME280;69915;54.862;10.730;2024-03-29T02:19:34;99170.34;;;6.66;100.00
80566;BME280;69915;54.862;10.730;2024-03-29T02:22:01;99168.31;;;6.71;100.00
80566;BME280;69915;54.862;10.730;2024-03-29T02:24:30;99177.06;;;6.68;100.00
80566;BME280;69915;54.862;10.730;2024-03-29T02:26:57;99178.78;;;6.64;100.00
80566;BME280;69915;54.862;10.730;2024-03-29T02:29:23;99185.00;;;6.65;100.00
80566;BME280;69915;54.862;10.730;2024-03-29T02:31:49;99188.22;;;6.67;100.00
80566;BME280;69915;54.862;10.730;2024-03-29T02:34:15;99182.28;;;6.65;100.00
80566;BME280;69915;54.862;10.730;2024-03-29T02:36:40;99191.25;;;6.65;100.00
80566;BME280;69915;54.862;10.730;2024-03-29T02:39:09;99184.72;;;6.66;100.00
80566;BME280;69915;54.862;10.730;2024-03-29T02:41:35;99189.63;;;6.64;100.00
80566;BME280;69915;54.862;10.730;2024-03-29T02:44:01;99187.53;;;6.61;100.00
80566;BME280;69915;54.862;10.730;2024-03-29T02:46:27;99197.91;;;6.59;100.00
80566;BME280;69915;54.862;10.730;2024-03-29T02:48:52;99189.25;;;6.57;100.00
80566;BME280;69915;54.862;10.730;2024-03-29T02:51:18;99192.66;;;6.63;100.00
80566;BME280;69915;54.862;10.730;2024-03-29T02:53:44;99184.31;;;6.59;100.00
80566;BME280;69915;54.862;10.730;2024-03-29T02:56:09;99186.53;;;6.57;100.00
80566;BME280;69915;54.862;10.730;2024-03-29T02:58:35;99190.75;;;6.63;100.00
80566;BME280;69915;54.862;10.730;2024-03-29T03:01:10;99190.84;;;6.58;100.00
80566;BME280;69915;54.862;10.730;2024-03-29T03:03:36;99185.94;;;6.60;100.00
80566;BME280;69915;54.862;10.730;2024-03-29T03:06:02;99186.72;;;6.61;100.00
80566;BME280;69915;54.862;10.730;2024-03-29T03:08:29;99181.81;;;6.63;100.00
80566;BME280;69915;54.862;10.730;2024-03-29T03:14:35;99176.66;;;6.61;100.00
80566;BME280;69915;54.862;10.730;2024-03-29T03:17:01;99181.00;;;6.62;100.00
80566;BME280;69915;54.862;10.730;2024-03-29T03:19:26;99172.97;;;6.57;100.00
80566;BME280;69915;54.862;10.730;2024-03-29T03:21:52;99167.72;;;6.61;100.00
80566;BME280;69915;54.862;10.730;2024-03-29T03:24:17;99171.34;;;6.56;100.00
80566;BME280;69915;54.862;10.730;2024-03-29T03:26:43;99182.63;;;6.49;100.00
80566;BME280;69915;54.862;10.730;2024-03-29T03:29:08;99181.81;;;6.49;100.00
80566;BME280;69915;54.862;10.730;2024-03-29T03:31:35;99183.22;;;6.46;100.00
80566;BME280;69915;54.862;10.730;2024-03-29T03:34:01;99181.19;;;6.52;100.00
80566;BME280;69915;54.862;10.730;2024-03-29T03:36:26;99192.75;;;6.57;100.00
80566;BME280;69915;54.862;10.730;2024-03-29T03:38:52;99198.50;;;6.56;100.00
80566;BME280;69915;54.862;10.730;2024-03-29T03:41:17;99204.75;;;6.56;100.00
80566;BME280;69915;54.862;10.730;2024-03-29T03:43:43;99215.19;;;6.49;100.00
80566;BME280;69915;54.862;10.730;2024-03-29T03:46:08;99214.31;;;6.54;100.00
80566;BME280;69915;54.862;10.730;2024-03-29T03:48:34;99206.94;;;6.54;100.00
80566;BME280;69915;54.862;10.730;2024-03-29T03:51:00;99206.66;;;6.56;100.00
80566;BME280;69915;54.862;10.730;2024-03-29T03:53:25;99207.66;;;6.60;100.00
80566;BME280;69915;54.862;10.730;2024-03-29T03:55:50;99206.53;;;6.61;100.00
80566;BME280;69915;54.862;10.730;2024-03-29T03:58:16;99205.63;;;6.66;99.84
80566;BME280;69915;54.862;10.730;2024-03-29T04:00:42;99194.69;;;6.57;99.88
80566;BME280;69915;54.862;10.730;2024-03-29T04:03:08;99190.34;;;6.56;99.68
80566;BME280;69915;54.862;10.730;2024-03-29T04:05:36;99184.00;;;6.61;99.74
80566;BME280;69915;54.862;10.730;2024-03-29T04:08:03;99181.59;;;6.59;99.76
80566;BME280;69915;54.862;10.730;2024-03-29T04:10:29;99185.81;;;6.65;99.39
80566;BME280;69915;54.862;10.730;2024-03-29T04:12:54;99180.50;;;6.60;99.21
80566;BME280;69915;54.862;10.730;2024-03-29T04:15:20;99174.56;;;6.58;99.18
80566;BME280;69915;54.862;10.730;2024-03-29T04:17:46;99176.97;;;6.60;98.63
80566;BME280;69915;54.862;10.730;2024-03-29T04:20:11;99172.84;;;6.62;98.72
80566;BME280;69915;54.862;10.730;2024-03-29T04:22:37;99172.72;;;6.67;98.36
80566;BME280;69915;54.862;10.730;2024-03-29T04:25:03;99174.16;;;6.65;98.03
80566;BME280;69915;54.862;10.730;2024-03-29T04:27:28;99179.09;;;6.63;97.94
80566;BME280;69915;54.862;10.730;2024-03-29T04:29:54;99177.28;;;6.58;98.00
80566;BME280;69915;54.862;10.730;2024-03-29T04:32:20;99185.53;;;6.53;98.68
80566;BME280;69915;54.862;10.730;2024-03-29T04:34:47;99187.44;;;6.52;98.60
80566;BME280;69915;54.862;10.730;2024-03-29T04:37:13;99190.47;;;6.51;98.84
80566;BME280;69915;54.862;10.730;2024-03-29T04:39:39;99195.59;;;6.52;98.95
80566;BME280;69915;54.862;10.730;2024-03-29T04:42:04;99193.81;;;6.48;98.95
80566;BME280;69915;54.862;10.730;2024-03-29T04:44:30;99198.50;;;6.42;99.01
80566;BME280;69915;54.862;10.730;2024-03-29T04:46:55;99198.63;;;6.37;99.50
80566;BME280;69915;54.862;10.730;2024-03-29T04:49:24;99205.34;;;6.40;99.73
80566;BME280;69915;54.862;10.730;2024-03-29T04:51:59;99209.34;;;6.42;100.00
80566;BME280;69915;54.862;10.730;2024-03-29T04:54:25;99219.31;;;6.47;99.97
80566;BME280;69915;54.862;10.730;2024-03-29T04:56:50;99211.19;;;6.47;99.61
80566;BME280;69915;54.862;10.730;2024-03-29T04:59:16;99215.50;;;6.48;99.80
80566;BME280;69915;54.862;10.730;2024-03-29T05:01:43;99237.22;;;6.48;99.99
80566;BME280;69915;54.862;10.730;2024-03-29T05:04:10;99225.25;;;6.49;99.31
80566;BME280;69915;54.862;10.730;2024-03-29T05:06:35;99241.94;;;6.56;99.64
80566;BME280;69915;54.862;10.730;2024-03-29T05:09:01;99240.63;;;6.67;99.25
80566;BME280;69915;54.862;10.730;2024-03-29T05:11:27;99224.19;;;6.86;99.21
80566;BME280;69915;54.862;10.730;2024-03-29T05:13:52;99218.75;;;6.99;97.89
80566;BME280;69915;54.862;10.730;2024-03-29T05:16:18;99221.63;;;7.39;96.94
80566;BME280;69915;54.862;10.730;2024-03-29T05:18:43;99224.94;;;7.80;94.97
80566;BME280;69915;54.862;10.730;2024-03-29T05:21:09;99213.13;;;8.15;92.68
80566;BME280;69915;54.862;10.730;2024-03-29T05:23:35;99195.38;;;8.66;89.68
80566;BME280;69915;54.862;10.730;2024-03-29T05:26:00;99190.59;;;8.97;87.44
80566;BME280;69915;54.862;10.730;2024-03-29T05:28:26;99175.69;;;9.29;84.77
80566;BME280;69915;54.862;10.730;2024-03-29T05:30:52;99171.25;;;9.79;83.35
80566;BME280;69915;54.862;10.730;2024-03-29T05:33:17;99163.47;;;10.45;81.35
80566;BME280;69915;54.862;10.730;2024-03-29T05:35:43;99141.66;;;10.66;78.20
80566;BME280;69915;54.862;10.730;2024-03-29T05:38:09;99138.84;;;10.95;76.89
80566;BME280;69915;54.862;10.730;2024-03-29T05:40:35;99137.38;;;10.77;75.86
80566;BME280;69915;54.862;10.730;2024-03-29T05:43:00;99173.44;;;10.03;77.71
80566;BME280;69915;54.862;10.730;2024-03-29T05:45:28;99184.94;;;10.26;79.04
80566;BME280;69915;54.862;10.730;2024-03-29T05:47:55;99186.44;;;10.73;78.25
80566;BME280;69915;54.862;10.730;2024-03-29T05:50:22;99162.31;;;10.55;76.42
80566;BME280;69915;54.862;10.730;2024-03-29T05:52:48;99193.47;;;9.61;77.70
80566;BME280;69915;54.862;10.730;2024-03-29T05:55:14;99230.56;;;9.10;81.28
80566;BME280;69915;54.862;10.730;2024-03-29T05:57:39;99226.38;;;9.47;82.17
80566;BME280;69915;54.862;10.730;2024-03-29T06:00:07;99213.97;;;9.84;81.50
80566;BME280;69915;54.862;10.730;2024-03-29T06:02:36;99183.59;;;10.70;78.65
80566;BME280;69915;54.862;10.730;2024-03-29T06:05:02;99163.84;;;11.26;76.93
80566;BME280;69915;54.862;10.730;2024-03-29T06:07:28;99147.03;;;11.36;74.13
80566;BME280;69915;54.862;10.730;2024-03-29T06:09:54;99163.66;;;11.11;74.51
80566;BME280;69915;54.862;10.730;2024-03-29T06:12:20;99178.06;;;10.99;74.56
80566;BME280;69915;54.862;10.730;2024-03-29T06:14:46;99194.13;;;10.80;75.19
80566;BME280;69915;54.862;10.730;2024-03-29T06:17:30;99208.03;;;10.37;76.21
80566;BME280;69915;54.862;10.730;2024-03-29T06:19:56;99221.28;;;10.18;77.18
80566;BME280;69915;54.862;10.730;2024-03-29T06:22:23;99223.44;;;10.42;77.20
80566;BME280;69915;54.862;10.730;2024-03-29T06:24:49;99234.06;;;10.34;77.58
80566;BME280;69915;54.862;10.730;2024-03-29T06:27:23;99218.53;;;10.26;77.16
80566;BME280;69915;54.862;10.730;2024-03-29T06:29:51;99227.53;;;10.10;78.18
80566;BME280;69915;54.862;10.730;2024-03-29T06:32:17;99244.78;;;9.93;78.55
80566;BME280;69915;54.862;10.730;2024-03-29T06:34:44;99251.50;;;10.04;79.10
80566;BME280;69915;54.862;10.730;2024-03-29T06:37:11;99232.06;;;10.14;78.48
80566;BME280;69915;54.862;10.730;2024-03-29T06:39:36;99231.53;;;10.12;78.09
80566;BME280;69915;54.862;10.730;2024-03-29T06:42:02;99232.56;;;9.99;78.62
80566;BME280;69915;54.862;10.730;2024-03-29T06:44:28;99234.78;;;9.97;78.81
80566;BME280;69915;54.862;10.730;2024-03-29T06:46:54;99244.47;;;9.86;78.87
80566;BME280;69915;54.862;10.730;2024-03-29T06:49:19;99242.69;;;9.81;79.03
80566;BME280;69915;54.862;10.730;2024-03-29T06:51:45;99251.53;;;9.78;79.35
80566;BME280;69915;54.862;10.730;2024-03-29T06:54:11;99259.88;;;9.82;79.33
80566;BME280;69915;54.862;10.730;2024-03-29T06:56:36;99256.84;;;9.83;79.96
80566;BME280;69915;54.862;10.730;2024-03-29T06:59:02;99247.00;;;9.91;79.47
80566;BME280;69915;54.862;10.730;2024-03-29T07:01:27;99254.75;;;9.89;79.26
80566;BME280;69915;54.862;10.730;2024-03-29T07:03:53;99265.16;;;9.96;79.10
80566;BME280;69915;54.862;10.730;2024-03-29T07:06:19;99261.63;;;9.95;79.33
80566;BME280;69915;54.862;10.730;2024-03-29T07:08:44;99259.56;;;9.92;78.98
80566;BME280;69915;54.862;10.730;2024-03-29T07:11:10;99255.69;;;9.93;78.74
80566;BME280;69915;54.862;10.730;2024-03-29T07:13:36;99266.16;;;9.82;78.83
80566;BME280;69915;54.862;10.730;2024-03-29T07:16:02;99262.13;;;9.80;79.39
80566;BME280;69915;54.862;10.730;2024-03-29T07:18:28;99263.59;;;9.77;79.88
80566;BME280;69915;54.862;10.730;2024-03-29T07:20:54;99259.59;;;9.75;79.17
80566;BME280;69915;54.862;10.730;2024-03-29T07:23:20;99273.09;;;9.63;79.20
80566;BME280;69915;54.862;10.730;2024-03-29T07:25:58;99287.84;;;9.62;80.31
80566;BME280;69915;54.862;10.730;2024-03-29T07:28:23;99275.63;;;9.68;80.13
80566;BME280;69915;54.862;10.730;2024-03-29T07:30:49;99285.44;;;9.69;80.47
80566;BME280;69915;54.862;10.730;2024-03-29T07:33:22;99274.97;;;9.79;79.76
80566;BME280;69915;54.862;10.730;2024-03-29T07:35:54;99290.38;;;9.75;80.23
80566;BME280;69915;54.862;10.730;2024-03-29T07:38:21;99270.00;;;9.81;79.78
80566;BME280;69915;54.862;10.730;2024-03-29T07:40:47;99283.03;;;9.84;78.96
80566;BME280;69915;54.862;10.730;2024-03-29T07:43:13;99312.72;;;9.77;80.79
80566;BME280;69915;54.862;10.730;2024-03-29T07:45:40;99292.81;;;9.77;79.77
80566;BME280;69915;54.862;10.730;2024-03-29T07:48:09;99296.00;;;9.79;79.81
80566;BME280;69915;54.862;10.730;2024-03-29T07:50:34;99301.63;;;9.91;79.93
80566;BME280;69915;54.862;10.730;2024-03-29T07:53:02;99313.84;;;9.94;80.24
80566;BME280;69915;54.862;10.730;2024-03-29T07:55:27;99313.81;;;10.11;79.70
80566;BME280;69915;54.862;10.730;2024-03-29T07:57:53;99295.50;;;10.11;78.18
80566;BME280;69915;54.862;10.730;2024-03-29T08:00:19;99310.63;;;10.17;79.20
80566;BME280;69915;54.862;10.730;2024-03-29T08:02:44;99315.44;;;10.20;78.96
80566;BME280;69915;54.862;10.730;2024-03-29T08:05:11;99311.56;;;10.30;78.08
80566;BME280;69915;54.862;10.730;2024-03-29T08:07:36;99308.03;;;10.21;78.03
80566;BME280;69915;54.862;10.730;2024-03-29T08:10:02;99311.88;;;10.11;78.39
80566;BME280;69915;54.862;10.730;2024-03-29T08:12:28;99320.56;;;10.13;78.17
80566;BME280;69915;54.862;10.730;2024-03-29T08:14:54;99328.28;;;9.94;78.51
80566;BME280;69915;54.862;10.730;2024-03-29T08:17:19;99326.97;;;10.00;78.60
80566;BME280;69915;54.862;10.730;2024-03-29T08:19:45;99337.25;;;10.03;78.73
80566;BME280;69915;54.862;10.730;2024-03-29T08:22:10;99327.63;;;9.97;78.79
80566;BME280;69915;54.862;10.730;2024-03-29T08:24:37;99328.13;;;9.99;78.76
80566;BME280;69915;54.862;10.730;2024-03-29T08:27:02;99339.50;;;10.01;79.00
80566;BME280;69915;54.862;10.730;2024-03-29T08:29:29;99334.53;;;10.03;78.72
80566;BME280;69915;54.862;10.730;2024-03-29T08:31:54;99342.41;;;10.13;78.56
80566;BME280;69915;54.862;10.730;2024-03-29T08:34:20;99336.47;;;10.11;78.67
80566;BME280;69915;54.862;10.730;2024-03-29T08:36:45;99328.91;;;10.25;78.03
80566;BME280;69915;54.862;10.730;2024-03-29T08:39:11;99324.53;;;10.42;77.60
80566;BME280;69915;54.862;10.730;2024-03-29T08:41:37;99334.75;;;10.62;77.59
80566;BME280;69915;54.862;10.730;2024-03-29T08:44:02;99325.88;;;10.65;76.36
80566;BME280;69915;54.862;10.730;2024-03-29T08:46:28;99338.91;;;10.68;76.48
80566;BME280;69915;54.862;10.730;2024-03-29T08:48:54;99340.78;;;10.84;76.74
80566;BME280;69915;54.862;10.730;2024-03-29T08:51:22;99333.22;;;11.11;76.49
80566;BME280;69915;54.862;10.730;2024-03-29T08:53:48;99345.06;;;11.23;76.19
80566;BME280;69915;54.862;10.730;2024-03-29T08:56:14;99337.16;;;11.30;75.49
80566;BME280;69915;54.862;10.730;2024-03-29T08:58:40;99351.13;;;11.37;75.40
80566;BME280;69915;54.862;10.730;2024-03-29T09:01:06;99325.69;;;11.58;74.62
80566;BME280;69915;54.862;10.730;2024-03-29T09:03:32;99310.06;;;11.99;73.49
80566;BME280;69915;54.862;10.730;2024-03-29T09:05:57;99288.41;;;12.07;71.99
80566;BME280;69915;54.862;10.730;2024-03-29T09:08:23;99287.97;;;12.05;71.39
80566;BME280;69915;54.862;10.730;2024-03-29T09:10:50;99299.19;;;11.91;71.30
80566;BME280;69915;54.862;10.730;2024-03-29T09:13:16;99315.47;;;11.67;72.48
80566;BME280;69915;54.862;10.730;2024-03-29T09:15:41;99320.75;;;11.51;72.57
80566;BME280;69915;54.862;10.730;2024-03-29T09:18:07;99331.31;;;11.40;73.43
80566;BME280;69915;54.862;10.730;2024-03-29T09:20:44;99332.78;;;11.59;73.74
80566;BME280;69915;54.862;10.730;2024-03-29T09:23:10;99319.34;;;11.66;73.04
80566;BME280;69915;54.862;10.730;2024-03-29T09:25:40;99321.13;;;11.41;73.26
80566;BME280;69915;54.862;10.730;2024-03-29T09:28:06;99340.19;;;11.37;73.20
80566;BME280;69915;54.862;10.730;2024-03-29T09:30:32;99359.03;;;11.30;74.07
80566;BME280;69915;54.862;10.730;2024-03-29T09:32:58;99343.16;;;11.24;73.52
80566;BME280;69915;54.862;10.730;2024-03-29T09:35:23;99363.28;;;11.19;74.65
80566;BME280;69915;54.862;10.730;2024-03-29T09:37:50;99362.00;;;11.17;74.41
80566;BME280;69915;54.862;10.730;2024-03-29T09:40:16;99351.00;;;11.25;74.06
80566;BME280;69915;54.862;10.730;2024-03-29T09:42:44;99365.69;;;11.21;74.63
80566;BME280;69915;54.862;10.730;2024-03-29T09:45:11;99360.84;;;11.26;74.64
80566;BME280;69915;54.862;10.730;2024-03-29T09:47:37;99374.97;;;11.28;75.52
80566;BME280;69915;54.862;10.730;2024-03-29T09:50:03;99364.53;;;11.30;75.27
80566;BME280;69915;54.862;10.730;2024-03-29T09:52:33;99362.53;;;11.39;75.05
80566;BME280;69915;54.862;10.730;2024-03-29T09:55:02;99346.19;;;11.22;73.97
80566;BME280;69915;54.862;10.730;2024-03-29T09:57:28;99352.31;;;11.48;74.61
80566;BME280;69915;54.862;10.730;2024-03-29T09:59:57;99351.75;;;11.34;74.44
80566;BME280;69915;54.862;10.730;2024-03-29T10:02:28;99367.91;;;11.27;74.91
80566;BME280;69915;54.862;10.730;2024-03-29T10:04:55;99368.84;;;11.02;75.16
80566;BME280;69915;54.862;10.730;2024-03-29T10:07:23;99378.31;;;11.05;75.94
80566;BME280;69915;54.862;10.730;2024-03-29T10:09:49;99377.28;;;10.80;76.85
80566;BME280;69915;54.862;10.730;2024-03-29T10:12:16;99395.38;;;10.64;78.46
80566;BME280;69915;54.862;10.730;2024-03-29T10:14:49;99395.06;;;10.57;79.85
80566;BME280;69915;54.862;10.730;2024-03-29T10:17:17;99394.09;;;10.53;80.81
80566;BME280;69915;54.862;10.730;2024-03-29T10:19:43;99382.97;;;10.66;80.77
80566;BME280;69915;54.862;10.730;2024-03-29T10:22:09;99373.94;;;10.74;79.52
80566;BME280;69915;54.862;10.730;2024-03-29T10:24:36;99377.94;;;10.77;79.19
80566;BME280;69915;54.862;10.730;2024-03-29T10:27:02;99379.88;;;10.85;79.44
80566;BME280;69915;54.862;10.730;2024-03-29T10:29:28;99381.00;;;10.75;79.58
80566;BME280;69915;54.862;10.730;2024-03-29T10:31:57;99379.63;;;10.61;79.38
80566;BME280;69915;54.862;10.730;2024-03-29T10:34:24;99386.22;;;10.60;80.73
80566;BME280;69915;54.862;10.730;2024-03-29T10:36:50;99373.31;;;10.69;79.74
80566;BME280;69915;54.862;10.730;2024-03-29T10:39:16;99368.47;;;10.74;80.00
80566;BME280;69915;54.862;10.730;2024-03-29T10:41:46;99354.28;;;10.81;80.09
80566;BME280;69915;54.862;10.730;2024-03-29T10:44:13;99358.66;;;11.11;80.39
80566;BME280;69915;54.862;10.730;2024-03-29T10:46:40;99357.53;;;11.12;80.10
80566;BME280;69915;54.862;10.730;2024-03-29T10:49:14;99376.50;;;11.17;79.64
80566;BME280;69915;54.862;10.730;2024-03-29T10:51:42;99379.97;;;10.97;79.08
80566;BME280;69915;54.862;10.730;2024-03-29T10:54:09;99386.75;;;10.91;79.06
80566;BME280;69915;54.862;10.730;2024-03-29T10:56:36;99381.78;;;10.84;79.19
80566;BME280;69915;54.862;10.730;2024-03-29T10:59:25;99391.78;;;10.72;80.44
80566;BME280;69915;54.862;10.730;2024-03-29T11:01:59;99395.88;;;10.49;80.80
80566;BME280;69915;54.862;10.730;2024-03-29T11:04:32;99404.91;;;10.32;82.19
80566;BME280;69915;54.862;10.730;2024-03-29T11:07:01;99403.78;;;10.33;83.35
80566;BME280;69915;54.862;10.730;2024-03-29T11:09:33;99413.75;;;10.20;85.40
80566;BME280;69915;54.862;10.730;2024-03-29T11:12:01;99411.16;;;10.15;86.43
80566;BME280;69915;54.862;10.730;2024-03-29T11:14:44;99410.06;;;10.16;87.29
80566;BME280;69915;54.862;10.730;2024-03-29T11:17:11;99403.47;;;10.17;87.58
80566;BME280;69915;54.862;10.730;2024-03-29T11:19:39;99406.22;;;10.17;88.14
80566;BME280;69915;54.862;10.730;2024-03-29T11:22:05;99405.53;;;10.12;87.83
80566;BME280;69915;54.862;10.730;2024-03-29T11:24:31;99409.69;;;10.09;88.53
80566;BME280;69915;54.862;10.730;2024-03-29T11:26:57;99398.66;;;10.14;87.66
80566;BME280;69915;54.862;10.730;2024-03-29T11:29:23;99412.41;;;10.09;88.43
80566;BME280;69915;54.862;10.730;2024-03-29T11:31:58;99401.84;;;9.99;87.32
80566;BME280;69915;54.862;10.730;2024-03-29T11:34:24;99404.88;;;10.06;87.82
80566;BME280;69915;54.862;10.730;2024-03-29T11:36:50;99396.22;;;10.04;87.64
80566;BME280;69915;54.862;10.730;2024-03-29T11:39:22;99391.38;;;10.10;87.47
80566;BME280;69915;54.862;10.730;2024-03-29T11:41:49;99397.03;;;10.13;87.46
80566;BME280;69915;54.862;10.730;2024-03-29T11:44:15;99395.75;;;10.19;87.31
80566;BME280;69915;54.862;10.730;2024-03-29T11:46:42;99386.59;;;10.32;85.41
80566;BME280;69915;54.862;10.730;2024-03-29T11:49:09;99406.50;;;10.33;85.26
80566;BME280;69915;54.862;10.730;2024-03-29T11:51:34;99402.47;;;10.30;85.34
80566;BME280;69915;54.862;10.730;2024-03-29T11:54:00;99404.56;;;10.42;85.49
80566;BME280;69915;54.862;10.730;2024-03-29T11:56:26;99421.72;;;10.60;85.68
80566;BME280;69915;54.862;10.730;2024-03-29T11:58:51;99407.63;;;10.41;85.00
80566;BME280;69915;54.862;10.730;2024-03-29T12:01:18;99407.13;;;10.47;85.00
80566;BME280;69915;54.862;10.730;2024-03-29T12:03:44;99405.97;;;10.57;85.59
80566;BME280;69915;54.862;10.730;2024-03-29T12:06:10;99408.75;;;10.48;85.19
80566;BME280;69915;54.862;10.730;2024-03-29T12:08:38;99397.00;;;10.30;84.71
80566;BME280;69915;54.862;10.730;2024-03-29T12:11:05;99405.22;;;10.30;85.72
80566;BME280;69915;54.862;10.730;2024-03-29T12:13:31;99397.66;;;10.27;85.26
80566;BME280;69915;54.862;10.730;2024-03-29T12:15:59;99403.44;;;10.34;86.08
80566;BME280;69915;54.862;10.730;2024-03-29T12:18:25;99417.25;;;10.38;86.52
80566;BME280;69915;54.862;10.730;2024-03-29T12:20:51;99412.63;;;10.30;86.98
80566;BME280;69915;54.862;10.730;2024-03-29T12:23:21;99401.22;;;10.19;87.54
80566;BME280;69915;54.862;10.730;2024-03-29T12:25:50;99405.38;;;10.08;87.49
80566;BME280;69915;54.862;10.730;2024-03-29T12:28:21;99399.78;;;10.13;88.04
80566;BME280;69915;54.862;10.730;2024-03-29T12:30:48;99421.94;;;10.20;89.50
80566;BME280;69915;54.862;10.730;2024-03-29T12:33:15;99420.81;;;10.38;89.61
80566;BME280;69915;54.862;10.730;2024-03-29T12:35:45;99419.84;;;10.52;90.41
80566;BME280;69915;54.862;10.730;2024-03-29T12:38:14;99425.56;;;10.76;90.06
80566;BME280;69915;54.862;10.730;2024-03-29T12:40:42;99423.88;;;10.92;89.43
80566;BME280;69915;54.862;10.730;2024-03-29T12:43:09;99419.44;;;10.79;88.47
80566;BME280;69915;54.862;10.730;2024-03-29T12:45:36;99415.53;;;10.97;89.20
80566;BME280;69915;54.862;10.730;2024-03-29T12:48:02;99408.25;;;11.01;88.15
80566;BME280;69915;54.862;10.730;2024-03-29T12:50:32;99415.78;;;11.04;87.80
80566;BME280;69915;54.862;10.730;2024-03-29T12:53:05;99417.47;;;11.26;86.66